Nome Airport Nome US
ICAO: PAOM
IATA:
Category: Medium
Scheduled Services:

Elevation: 37 ft
TransAlt. 18000 ft.

Airport Communications:
ASOS:119.925
ATIS:119.925
ANCHORAGE CNTR:133.3
CTAF:123.6
RDO:122.45
TWEB:115

PAOM Zoom In..

Runways:

(A) RW 03 length 5576 ft width 150 ft
---- / hdg 28

(B) RW 10 length 6001 ft width 150 ft
---- / hdg 96

(C) RW 21 length 5576 ft width 150 ft
---- / hdg 208

(D) RW 28 length 6001 ft width 150 ft
ILS 108.70 / hdg 276

Location; PAOM
Day. 21 / Time. 05.53 Zulu
* Altimeter: 30.19
* Temperature: 12° c. 53.6°f.
* Wind from: 250° Speed 03 kn.
Dewpoint: 08° c.
Visibility: 10 Statute Miles.
Clouds: Scattered 2800 ft.

PAOM 210553Z 25003KT 10SM SCT028 12/08 A3019 RMK AO2 SLP225 T01220083 10128 20111 57007


Wind From 250°
Speed 03 kn.

 
 
jpsmedia.com for Web Design worldairports.se 2018   terms of use